EDTY

Adolf Würth Airport

Schwäbisch Hall, Germany
TAF EDTY 190800Z 1909/1918 06007KT 9999 SCT014 TEMPO 1909/1910 2500 BR
Issued Valid From Valid To
Oct-19 @ 08:00 UTC
(an hour ago)
Oct-19 @ 09:00 UTC
(7 minutes ago)
Oct-19 @ 18:00 UTC
(in 9 hours)
Oct-19 @ 09:00 to Oct-19 @ 18:00
TAF EDTY 190800Z 1909/1918 06007KT 9999 SCT014
Wind Visibility Clouds
60° at 7 knots 10,000+ meters
  • Scattered at 1,400' AGL
Temporary Oct-19 @ 09:00 to Oct-19 @ 10:00
TEMPO 1909/1910 2500 BR
Visibility Conditions
2,494 meters
  • Mist
TAF EDTY 190800Z 1909/1918 06007KT 9999 SCT014 TEMPO 1909/1910 2500 BR
Issued Oct-19 @ 08:00 UTC
(an hour ago)
Valid From Oct-19 @ 09:00 UTC
(7 minutes ago)
Valid To Oct-19 @ 18:00 UTC
(in 9 hours)
Oct-19 @ 09:00 - Oct-19 @ 18:00
Wind Visibility
60° at 7 knots 10,000+ meters
Clouds
  • Scattered at 1,400' AGL
Temporary Oct-19 @ 09:00 - Oct-19 @ 10:00
Conditions
  • Mist